Time;durP1;ratioP1;P1;durP2;ratioP2;P2;SDS_P1;SDS_P2;PMS_P1;PMS_P2;Temp;Humidity;BMP_temperature;BMP_pressure;BME280_temperature;BME280_humidity;BME280_pressure;Samples;Min_cycle;Max_cycle;Signal;HPM_P1;HPM_P2
2022/09/05 00:02:25;;;;;;;22.88;14.25;;;;;;;16.78;92.27;93301.34;5029191;28;20061;-75
2022/09/05 00:04:50;;;;;;;23.30;13.73;;;;;;;16.78;92.02;93305.88;5038943;28;20032;-75
2022/09/05 00:07:45;;;;;;;23.88;14.95;;;;;;;16.78;92.43;93297.94;5028368;28;20514;-75
2022/09/05 00:10:21;;;;;;;26.33;14.98;;;;;;;16.78;91.79;93298.72;5040874;28;20052;-75
2022/09/05 00:12:48;;;;;;;25.98;14.70;;;;;;;16.78;92.30;93296.06;5030190;28;20380;-75
2022/09/05 00:15:52;;;;;;;25.10;15.23;;;;;;;16.80;92.62;93299.22;5035712;28;20039;-75
2022/09/05 00:18:40;;;;;;;24.33;14.88;;;;;;;16.81;93.08;93300.00;5027386;28;20049;-75
2022/09/05 00:21:20;;;;;;;23.48;14.93;;;;;;;16.82;93.93;93291.78;5046573;28;20132;-76
2022/09/05 00:24:04;;;;;;;23.98;14.80;;;;;;;16.81;93.60;93295.47;5030024;28;20395;-76
2022/09/05 00:26:41;;;;;;;21.70;14.90;;;;;;;16.80;93.74;93299.22;5039438;28;20107;-76
2022/09/05 00:29:42;;;;;;;26.63;15.65;;;;;;;16.80;93.30;93301.88;5029647;28;20506;-76
2022/09/05 00:32:47;;;;;;;21.58;14.70;;;;;;;16.81;93.90;93295.47;5031100;28;20084;-76
2022/09/05 00:35:29;;;;;;;27.08;15.70;;;;;;;16.87;94.73;93305.94;5046573;28;20096;-76
2022/09/05 00:37:56;;;;;;;26.15;15.57;;;;;;;16.93;94.03;93292.28;5037530;28;20040;-76
2022/09/05 00:40:28;;;;;;;25.92;15.00;;;;;;;16.92;94.07;93298.63;5013333;28;20022;-76
2022/09/05 00:42:59;;;;;;;31.92;16.33;;;;;;;16.93;93.95;93294.13;5030321;28;20041;-76
2022/09/05 00:45:42;;;;;;;25.42;14.63;;;;;;;16.94;94.15;93293.06;5029127;28;20038;-76
2022/09/05 00:48:28;;;;;;;27.38;15.40;;;;;;;16.96;94.44;93290.88;5031875;28;20499;-76
2022/09/05 00:51:00;;;;;;;32.65;16.23;;;;;;;16.96;94.52;93288.25;5030258;28;20128;-75
2022/09/05 00:53:55;;;;;;;25.25;15.27;;;;;;;16.97;94.40;93289.78;5030935;28;20056;-76
2022/09/05 00:56:49;;;;;;;26.38;15.23;;;;;;;16.96;93.77;93289.00;5029509;28;20041;-76
2022/09/05 00:59:39;;;;;;;24.25;14.85;;;;;;;16.97;93.93;93293.22;5043182;28;20527;-76
2022/09/05 01:02:30;;;;;;;21.95;14.85;;;;;;;16.98;94.18;93284.19;5028566;28;20033;-76
2022/09/05 01:05:14;;;;;;;24.52;14.30;;;;;;;17.00;93.87;93291.81;5028632;28;20112;-76
2022/09/05 01:07:42;;;;;;;21.25;14.60;;;;;;;17.02;94.48;93295.72;5015542;28;20041;-75
2022/09/05 01:10:32;;;;;;;34.42;14.52;;;;;;;17.04;94.31;93298.06;5025656;28;20038;-76
2022/09/05 01:13:10;;;;;;;28.60;14.95;;;;;;;17.08;94.65;93301.66;5032179;28;20033;-76
2022/09/05 01:16:05;;;;;;;28.73;14.95;;;;;;;17.09;95.08;93297.13;5027982;28;20087;-76
2022/09/05 01:18:54;;;;;;;24.92;14.30;;;;;;;17.08;94.99;93292.94;5028834;28;20442;-76
2022/09/05 01:21:47;;;;;;;25.20;14.93;;;;;;;17.06;94.56;93295.88;5028158;28;20138;-76
2022/09/05 01:24:40;;;;;;;27.45;15.02;;;;;;;17.05;93.99;93292.47;5029625;28;20038;-76
2022/09/05 01:27:31;;;;;;;21.10;14.38;;;;;;;17.07;94.41;93300.09;5041019;28;20033;-76
2022/09/05 01:30:30;;;;;;;20.05;13.50;;;;;;;17.08;93.88;93303.53;5032395;28;20049;-76
2022/09/05 01:33:23;;;;;;;25.58;14.38;;;;;;;17.06;94.42;93298.53;5028838;28;20407;-76
2022/09/05 01:36:08;;;;;;;23.80;14.60;;;;;;;17.05;94.15;93296.97;5030515;28;20039;-76
2022/09/05 01:38:58;;;;;;;24.00;14.43;;;;;;;17.03;93.91;93296.50;5043762;28;20046;-76
2022/09/05 01:41:45;;;;;;;23.75;14.02;;;;;;;17.02;94.05;93294.94;5029057;28;20083;-76
2022/09/05 01:44:39;;;;;;;21.60;13.63;;;;;;;17.02;94.14;93294.94;5029526;28;20443;-76
2022/09/05 01:47:23;;;;;;;25.25;14.60;;;;;;;17.02;93.95;93300.22;5031546;28;20120;-76
2022/09/05 01:50:13;;;;;;;24.40;14.32;;;;;;;16.99;93.54;93296.31;5033452;28;20022;-76
2022/09/05 01:53:00;;;;;;;23.48;13.95;;;;;;;16.99;93.87;93296.31;5029074;28;20045;-76
2022/09/05 01:55:45;;;;;;;22.67;14.75;;;;;;;17.01;94.38;93296.03;5034069;28;20034;-76
2022/09/05 01:58:25;;;;;;;25.27;14.80;;;;;;;17.01;94.76;93291.50;5031653;28;20387;-76
2022/09/05 02:01:10;;;;;;;21.23;14.00;;;;;;;17.02;94.67;93292.28;5022555;28;20036;-76
2022/09/05 02:03:41;;;;;;;23.45;14.38;;;;;;;16.98;94.98;93286.06;5054093;28;20060;-76
2022/09/05 02:06:32;;;;;;;21.92;14.45;;;;;;;16.97;94.11;93287.91;5033534;28;20490;-76
2022/09/05 02:09:09;;;;;;;23.38;13.40;;;;;;;16.96;93.92;93286.38;5036743;28;20376;-76
2022/09/05 02:12:09;;;;;;;23.00;14.15;;;;;;;16.96;94.62;93285.59;5033913;28;20045;-76
2022/09/05 02:14:39;;;;;;;26.85;13.80;;;;;;;16.94;94.61;93285.91;5017751;28;20064;-76
2022/09/05 02:17:39;;;;;;;23.83;14.65;;;;;;;16.95;94.84;93281.38;5031771;28;20040;-76
2022/09/05 02:20:22;;;;;;;27.88;14.68;;;;;;;16.94;95.13;93279.84;5010143;28;20124;-76
2022/09/05 02:23:09;;;;;;;22.85;14.15;;;;;;;16.91;95.64;93281.22;5034076;28;20401;-76
2022/09/05 02:25:59;;;;;;;24.05;13.88;;;;;;;16.90;95.47;93282.28;5034026;28;20414;-76
2022/09/05 02:28:50;;;;;;;22.02;14.75;;;;;;;16.90;95.32;93281.53;5029601;28;20522;-76
2022/09/05 02:31:20;;;;;;;23.75;14.25;;;;;;;16.90;95.03;93286.81;5026696;28;20065;-76
2022/09/05 02:34:06;;;;;;;23.15;14.73;;;;;;;16.90;94.93;93281.53;5033627;28;20033;-76
2022/09/05 02:36:47;;;;;;;21.65;13.73;;;;;;;16.89;94.87;93279.94;5033238;28;20064;-76
2022/09/05 02:39:31;;;;;;;23.75;13.85;;;;;;;16.89;95.30;93285.25;5033842;28;20462;-76
2022/09/05 02:42:11;;;;;;;21.40;13.98;;;;;;;16.89;95.17;93287.88;5048214;28;20090;-76
2022/09/05 02:44:59;;;;;;;24.42;14.52;;;;;;;16.89;95.31;93280.75;5033663;28;20038;-76
2022/09/05 02:48:14;;;;;;;24.52;14.40;;;;;;;16.88;95.32;93281.81;5043826;28;20044;-76
2022/09/05 02:50:50;;;;;;;23.95;14.20;;;;;;;16.89;95.79;93279.94;5034901;28;20253;-76
2022/09/05 02:53:19;;;;;;;24.00;13.82;;;;;;;16.88;95.52;93283.69;5033063;28;20038;-76
2022/09/05 02:55:47;;;;;;;24.75;14.23;;;;;;;16.85;95.63;93275.28;5032795;28;20044;-76
2022/09/05 02:58:41;;;;;;;24.45;14.65;;;;;;;16.84;95.21;93279.03;5026857;28;20037;-76
2022/09/05 03:01:24;;;;;;;22.90;14.35;;;;;;;16.87;95.91;93275.00;5025989;28;20506;-75
2022/09/05 03:04:00;;;;;;;24.75;14.35;;;;;;;16.89;96.47;93279.94;5001274;28;20034;-76
2022/09/05 03:06:48;;;;;;;22.27;15.32;;;;;;;16.86;96.38;93265.47;5013084;28;20067;-76
2022/09/05 03:10:00;;;;;;;24.48;15.05;;;;;;;16.87;96.27;93271.56;5029523;28;20030;-76
2022/09/05 03:12:38;;;;;;;23.60;14.43;;;;;;;16.88;96.85;93271.25;5025431;28;20049;-76
2022/09/05 03:15:37;;;;;;;24.10;14.07;;;;;;;16.91;97.23;93275.13;5032069;28;20040;-76
2022/09/05 03:18:25;;;;;;;25.15;14.73;;;;;;;16.92;97.21;93269.56;5033685;28;20034;-75
2022/09/05 03:21:28;;;;;;;26.75;14.93;;;;;;;16.93;96.70;93278.25;5026661;28;20042;-76
2022/09/05 03:24:23;;;;;;;23.63;14.15;;;;;;;16.95;96.69;93273.44;5032665;28;20041;-76
2022/09/05 03:27:24;;;;;;;24.50;13.77;;;;;;;16.96;97.38;93277.66;4962544;28;20134;-76
2022/09/05 03:30:05;;;;;;;25.20;13.32;;;;;;;16.97;97.59;93276.56;5029040;28;20026;-75
2022/09/05 03:32:55;;;;;;;20.77;14.32;;;;;;;17.02;98.06;93276.41;5041538;28;20048;-76
2022/09/05 03:35:52;;;;;;;20.55;13.80;;;;;;;17.02;98.31;93273.78;5033786;28;20505;-75
2022/09/05 03:38:36;;;;;;;23.35;13.43;;;;;;;17.04;98.21;93268.97;5031423;28;20561;-75
2022/09/05 03:41:27;;;;;;;23.50;13.40;;;;;;;17.09;98.23;93265.41;5030440;28;20029;-75
2022/09/05 03:44:09;;;;;;;30.48;14.02;;;;;;;17.07;97.96;93271.00;5011437;28;20068;-76
2022/09/05 03:47:12;;;;;;;19.77;13.93;;;;;;;17.06;97.64;93269.44;5012340;28;20030;-75
2022/09/05 03:50:16;;;;;;;21.73;13.95;;;;;;;17.08;97.51;93267.25;5028949;28;20056;-75
2022/09/05 03:53:00;;;;;;;22.13;13.95;;;;;;;17.09;97.99;93266.19;5039281;28;20033;-75
2022/09/05 03:55:44;;;;;;;21.42;13.70;;;;;;;17.11;97.47;93261.34;5027419;28;20069;-76
2022/09/05 03:58:23;;;;;;;21.95;12.98;;;;;;;17.11;97.59;93261.34;5029396;28;20025;-75
2022/09/05 04:01:26;;;;;;;20.30;12.98;;;;;;;17.12;97.95;93264.81;5031451;28;20436;-76
2022/09/05 04:03:59;;;;;;;18.20;12.73;;;;;;;17.12;97.75;93268.22;5031537;28;20029;-76
2022/09/05 04:06:30;;;;;;;22.20;13.35;;;;;;;17.12;97.87;93265.56;5030306;28;20041;-76
2022/09/05 04:09:12;;;;;;;21.92;14.45;;;;;;;17.12;97.34;93262.94;5025749;28;20289;-76
2022/09/05 04:11:48;;;;;;;19.05;13.15;;;;;;;17.15;97.43;93266.81;5021132;28;20050;-76
2022/09/05 04:14:23;;;;;;;21.45;13.88;;;;;;;17.17;98.30;93277.88;5031754;28;20041;-76
2022/09/05 04:16:58;;;;;;;22.13;12.50;;;;;;;17.18;97.82;93282.88;5030966;28;20033;-76
2022/09/05 04:19:39;;;;;;;19.05;12.93;;;;;;;17.19;97.24;93281.78;5031156;28;20057;-76
2022/09/05 04:22:27;;;;;;;25.08;13.43;;;;;;;17.20;97.98;93286.00;5032807;28;20700;-76
2022/09/05 04:24:58;;;;;;;23.48;12.88;;;;;;;17.21;97.45;93287.53;5032558;28;20037;-76
2022/09/05 04:27:30;;;;;;;18.57;12.73;;;;;;;17.23;97.38;93285.38;5031995;28;20029;-76
2022/09/05 04:30:17;;;;;;;23.33;13.25;;;;;;;17.26;98.17;93289.25;5030293;28;20288;-76
2022/09/05 04:32:52;;;;;;;20.15;12.63;;;;;;;17.25;98.80;93291.13;5030263;28;20033;-76
2022/09/05 04:35:38;;;;;;;21.35;12.25;;;;;;;17.24;98.90;93292.19;5039301;28;20044;-76
2022/09/05 04:38:16;;;;;;;21.25;12.18;;;;;;;17.23;98.92;93292.53;5031676;28;20457;-76
2022/09/05 04:40:59;;;;;;;19.38;12.10;;;;;;;17.23;99.07;93290.66;5030029;28;20043;-76
2022/09/05 04:43:52;;;;;;;20.10;12.27;;;;;;;17.21;98.97;93287.53;5032819;28;20040;-76
2022/09/05 04:46:34;;;;;;;19.05;11.95;;;;;;;17.21;98.05;93295.47;5040154;28;20442;-76
2022/09/05 04:49:03;;;;;;;16.50;11.32;;;;;;;17.21;97.82;93295.47;5026343;28;20398;-76
2022/09/05 04:51:59;;;;;;;16.95;12.40;;;;;;;17.21;97.78;93298.13;5031712;28;20518;-76
2022/09/05 04:54:40;;;;;;;17.27;11.73;;;;;;;17.22;97.92;93299.66;5034328;28;20037;-79
2022/09/05 04:57:29;;;;;;;14.65;11.35;;;;;;;17.22;97.74;93310.25;5033856;28;20087;-78
2022/09/05 05:00:51;;;;;;;22.38;11.80;;;;;;;17.23;97.77;93317.13;5030015;28;20037;-78
2022/09/05 05:03:23;;;;;;;16.80;11.35;;;;;;;17.22;97.49;93320.81;5028249;28;20121;-79
2022/09/05 05:05:48;;;;;;;;;;;;;;;17.25;98.71;93322.09;5049212;28;20435;-78
2022/09/05 05:08:25;;;;;;;17.50;11.10;;;;;;;17.24;99.17;93323.19;5034741;28;19921;-80
2022/09/05 05:10:57;;;;;;;16.10;11.35;;;;;;;17.25;99.30;93322.88;5015305;28;20104;-77
2022/09/05 05:13:52;;;;;;;21.70;11.98;;;;;;;17.24;99.68;93331.88;5030328;28;20096;-77
2022/09/05 05:16:23;;;;;;;15.40;10.48;;;;;;;17.22;96.95;93334.06;5029173;28;20147;-79
2022/09/05 05:18:58;;;;;;;17.92;10.27;;;;;;;17.22;96.87;93330.63;5016394;28;20030;-78
2022/09/05 05:21:28;;;;;;;17.45;10.82;;;;;;;17.23;98.03;93329.56;5025335;28;20048;-78
2022/09/05 05:23:59;;;;;;;19.60;10.88;;;;;;;17.26;98.75;93336.88;5035621;28;20038;-78
2022/09/05 05:26:34;;;;;;;16.90;10.95;;;;;;;17.26;99.08;93335.00;5037134;28;20049;-79
2022/09/05 05:29:08;;;;;;;16.38;11.15;;;;;;;17.27;98.76;93333.94;5034357;28;20506;-77
2022/09/05 05:31:58;;;;;;;16.55;10.93;;;;;;;17.28;99.13;93330.19;5030367;28;20041;-78
2022/09/05 05:34:33;;;;;;;15.20;10.07;;;;;;;17.27;96.35;93346.41;5049809;28;20041;-78
2022/09/05 05:37:33;;;;;;;20.70;9.55;;;;;;;17.27;96.06;93343.75;5033789;28;20041;-79
2022/09/05 05:40:08;;;;;;;13.60;10.18;;;;;;;17.27;96.68;93349.81;5031652;28;20025;-78
2022/09/05 05:42:36;;;;;;;14.40;9.90;;;;;;;17.30;97.93;93348.41;5036956;28;20033;-78
2022/09/05 05:45:03;;;;;;;15.00;9.93;;;;;;;17.35;98.74;93344.84;5036599;28;20025;-78
2022/09/05 05:47:44;;;;;;;15.93;9.98;;;;;;;17.38;98.48;93352.97;5018000;28;20393;-78
2022/09/05 05:50:45;;;;;;;20.13;9.80;;;;;;;17.37;99.17;93353.25;5035325;28;20042;-78
2022/09/05 05:53:18;;;;;;;33.97;11.80;;;;;;;17.37;98.73;93354.03;4990727;28;20073;-78
2022/09/05 05:56:07;;;;;;;19.00;10.05;;;;;;;17.37;98.84;93354.03;5035850;28;20034;-78
2022/09/05 05:59:02;;;;;;;20.98;10.70;;;;;;;17.40;100.00;93357.94;5035575;28;20438;-78
2022/09/05 06:01:43;;;;;;;15.40;10.00;;;;;;;17.41;99.43;93354.22;5036879;28;20104;-78
2022/09/05 06:04:27;;;;;;;13.70;9.85;;;;;;;17.31;98.27;93357.91;5044766;28;20391;-78
2022/09/05 06:07:04;;;;;;;16.55;9.75;;;;;;;17.26;97.87;93358.06;5057418;28;20063;-78
2022/09/05 06:10:07;;;;;;;17.08;9.60;;;;;;;17.18;97.49;93367.53;5056638;28;20075;-78
2022/09/05 06:12:51;;;;;;;13.52;9.13;;;;;;;17.09;98.00;93366.72;5057483;28;20479;-78
2022/09/05 06:15:35;;;;;;;29.10;11.65;;;;;;;17.22;99.17;93370.31;5041264;28;20564;-79
2022/09/05 06:18:52;;;;;;;31.35;11.60;;;;;;;17.15;99.24;93368.13;5039556;28;20041;-79
2022/09/05 06:21:39;;;;;;;17.45;10.40;;;;;;;17.06;100.00;93367.31;5013602;28;20029;-79
2022/09/05 06:24:32;;;;;;;18.63;10.95;;;;;;;17.00;100.00;93381.72;5035748;28;20533;-79
2022/09/05 06:27:07;;;;;;;19.45;10.52;;;;;;;16.98;100.00;93382.06;5010357;28;20038;-79
2022/09/05 06:29:45;;;;;;;15.32;11.63;;;;;;;16.96;100.00;93380.81;5002461;28;20030;-79
2022/09/05 06:32:53;;;;;;;19.25;11.70;;;;;;;16.93;100.00;93382.19;5039599;28;20045;-78
2022/09/05 06:35:25;;;;;;;21.00;13.68;;;;;;;16.96;100.00;93381.56;5023829;28;20041;-78
2022/09/05 06:37:59;;;;;;;26.38;12.32;;;;;;;16.94;100.00;93383.75;5055279;28;20033;-79
2022/09/05 06:40:36;;;;;;;19.83;12.88;;;;;;;16.92;100.00;93391.19;5044827;28;20053;-78
2022/09/05 06:43:25;;;;;;;23.27;12.93;;;;;;;16.90;100.00;93388.06;5036607;28;20029;-79
2022/09/05 06:46:09;;;;;;;19.63;12.85;;;;;;;16.89;100.00;93385.72;5039228;28;20087;-78
2022/09/05 06:48:44;;;;;;;22.23;14.10;;;;;;;16.86;100.00;93387.13;5036619;28;20042;-78
2022/09/05 06:51:36;;;;;;;22.15;13.57;;;;;;;16.85;100.00;93383.69;5055248;28;20407;-78
2022/09/05 06:54:14;;;;;;;18.80;12.23;;;;;;;16.84;100.00;93391.91;5041336;28;20040;-79
2022/09/05 06:57:07;;;;;;;17.23;12.57;;;;;;;16.80;100.00;93393.63;5043537;28;20028;-78
2022/09/05 06:59:51;;;;;;;22.25;14.18;;;;;;;16.77;100.00;93389.66;5059064;28;20041;-78
2022/09/05 07:02:35;;;;;;;21.92;13.43;;;;;;;16.73;100.00;93388.75;5059226;28;20646;-78
2022/09/05 07:05:08;;;;;;;18.45;14.05;;;;;;;16.69;100.00;93393.06;5060628;28;20486;-78
2022/09/05 07:07:49;;;;;;;22.85;15.35;;;;;;;16.71;100.00;93400.69;5051932;28;20467;-78
2022/09/05 07:10:29;;;;;;;23.73;17.63;;;;;;;16.74;100.00;93400.09;5040507;28;20033;-79
2022/09/05 07:13:17;;;;;;;23.83;18.25;;;;;;;16.77;100.00;93400.25;5040183;28;20058;-79
2022/09/05 07:15:56;;;;;;;26.58;17.85;;;;;;;16.82;100.00;93402.03;5040836;28;20108;-79
2022/09/05 07:18:33;;;;;;;24.55;16.60;;;;;;;16.79;100.00;93395.47;5056289;28;20060;-78
2022/09/05 07:21:22;;;;;;;22.70;17.05;;;;;;;16.77;100.00;93402.88;5041678;28;20537;-78
2022/09/05 07:24:00;;;;;;;25.80;18.50;;;;;;;16.75;100.00;93396.34;5040869;28;20091;-78
2022/09/05 07:26:27;;;;;;;25.33;19.48;;;;;;;16.73;100.00;93399.31;5039379;28;20407;-78
2022/09/05 07:29:01;;;;;;;27.33;20.42;;;;;;;16.72;100.00;93400.38;5040202;28;20028;-78
2022/09/05 07:31:29;;;;;;;27.75;19.27;;;;;;;16.74;100.00;93400.09;5042838;28;20036;-77
2022/09/05 07:34:21;;;;;;;26.75;20.58;;;;;;;16.77;100.00;93402.13;5041535;28;20045;-78
2022/09/05 07:36:54;;;;;;;;;;;;;;;16.75;100.00;93402.44;5041679;28;20033;-78
2022/09/05 07:39:27;;;;;;;27.17;20.17;;;;;;;16.71;100.00;93404.13;5041335;28;19936;-78
2022/09/05 07:41:56;;;;;;;25.15;19.40;;;;;;;16.68;100.00;93407.34;5041431;28;20083;-78
2022/09/05 07:44:28;;;;;;;29.25;21.35;;;;;;;16.74;100.00;93400.09;5039601;28;20029;-78
2022/09/05 07:47:04;;;;;;;30.00;21.27;;;;;;;16.85;100.00;93402.19;5041068;28;20040;-78
2022/09/05 07:49:33;;;;;;;28.02;20.17;;;;;;;16.90;100.00;93411.09;5043857;28;20030;-78
2022/09/05 07:52:06;;;;;;;26.63;21.85;;;;;;;16.95;100.00;93411.75;5058282;28;20211;-78
2022/09/05 07:54:35;;;;;;;29.90;21.08;;;;;;;16.73;100.00;93417.00;5060663;28;20041;-78
2022/09/05 07:57:08;;;;;;;29.55;21.42;;;;;;;16.57;100.00;93417.41;5061267;28;20495;-80
2022/09/05 07:59:39;;;;;;;26.25;21.92;;;;;;;16.60;100.00;93424.72;5060998;28;20483;-78
2022/09/05 08:02:08;;;;;;;28.23;22.42;;;;;;;16.68;100.00;93417.16;5058489;28;20049;-78
2022/09/05 08:04:38;;;;;;;30.40;23.20;;;;;;;16.77;100.00;93416.13;5061109;28;20501;-78
2022/09/05 08:07:18;;;;;;;26.48;21.52;;;;;;;16.87;100.00;93414.34;5059023;28;20494;-78
2022/09/05 08:09:55;;;;;;;25.27;20.27;;;;;;;16.95;100.00;93414.38;5059699;28;20055;-78
2022/09/05 08:12:27;;;;;;;27.73;22.27;;;;;;;16.80;100.00;93420.84;5057756;28;20041;-78
2022/09/05 08:15:04;;;;;;;29.35;21.52;;;;;;;16.81;100.00;93411.81;5060351;28;20033;-78
2022/09/05 08:17:34;;;;;;;24.70;19.55;;;;;;;16.76;100.00;93411.91;5052864;28;20037;-78
2022/09/05 08:20:07;;;;;;;25.17;19.55;;;;;;;16.84;100.00;93419.16;5039842;28;20037;-78
2022/09/05 08:22:48;;;;;;;25.88;20.02;;;;;;;16.93;100.00;93418.41;5039868;28;20411;-78
2022/09/05 08:25:24;;;;;;;26.45;19.42;;;;;;;16.99;100.00;93419.84;5038739;28;20064;-79
2022/09/05 08:28:21;;;;;;;29.27;21.02;;;;;;;17.18;100.00;93419.63;5039292;28;20045;-78
2022/09/05 08:31:22;;;;;;;30.23;22.58;;;;;;;17.38;100.00;93418.31;5055264;28;20037;-78
2022/09/05 08:33:55;;;;;;;30.52;22.75;;;;;;;17.65;100.00;93422.63;5035544;28;20049;-79
2022/09/05 08:36:35;;;;;;;;;;;;;;;18.00;100.00;93415.56;5040216;28;20034;-79
2022/09/05 08:39:03;;;;;;;28.25;20.80;;;;;;;18.41;100.00;93406.41;5039608;28;20347;-79
2022/09/05 08:41:47;;;;;;;28.00;20.27;;;;;;;18.56;100.00;93407.81;5040944;28;20029;-79
2022/09/05 08:44:22;;;;;;;24.75;19.98;;;;;;;18.52;100.00;93410.31;5059942;28;20345;-79
2022/09/05 08:46:53;;;;;;;23.25;19.95;;;;;;;18.52;100.00;93415.59;5059695;28;20055;-78
2022/09/05 08:49:28;;;;;;;25.13;20.75;;;;;;;18.58;100.00;93421.53;5045450;28;20034;-79
2022/09/05 08:52:03;;;;;;;25.10;18.40;;;;;;;18.83;100.00;93422.63;5023539;28;20033;-79
2022/09/05 08:55:01;;;;;;;25.13;19.55;;;;;;;19.21;100.00;93419.28;5039685;28;20044;-79
2022/09/05 08:57:45;;;;;;;22.35;18.48;;;;;;;19.59;100.00;93420.38;5033469;28;20050;-79
2022/09/05 09:00:15;;;;;;;21.40;17.13;;;;;;;19.91;98.32;93411.81;5037581;28;20087;-79
2022/09/05 09:02:53;;;;;;;22.38;17.35;;;;;;;19.65;95.81;93416.47;5044400;28;20036;-78
2022/09/05 09:05:45;;;;;;;15.13;12.60;;;;;;;19.08;95.53;93418.38;5057695;28;20044;-79
2022/09/05 09:08:18;;;;;;;19.60;15.43;;;;;;;19.10;98.76;93420.72;5030927;28;20040;-78
2022/09/05 09:11:30;;;;;;;18.40;15.05;;;;;;;18.95;100.00;93413.25;5059277;28;20044;-78
2022/09/05 09:14:17;;;;;;;23.30;17.30;;;;;;;18.67;100.00;93413.59;5047973;28;20049;-78
2022/09/05 09:16:53;;;;;;;19.98;17.15;;;;;;;18.76;100.00;93409.06;5059505;28;20025;-79
2022/09/05 09:19:27;;;;;;;19.77;16.40;;;;;;;18.73;100.00;93412.31;5059774;28;20052;-79
2022/09/05 09:22:19;;;;;;;18.75;16.65;;;;;;;18.71;100.00;93407.34;5059168;28;20459;-79
2022/09/05 09:25:02;;;;;;;14.68;12.65;;;;;;;18.76;100.00;93411.72;5055981;28;20040;-78
2022/09/05 09:27:40;;;;;;;17.60;12.68;;;;;;;18.78;99.80;93417.50;5031805;28;20026;-79
2022/09/05 09:30:06;;;;;;;17.65;13.48;;;;;;;18.80;100.00;93412.66;5036701;28;20036;-80
2022/09/05 09:32:44;;;;;;;17.23;14.25;;;;;;;18.88;100.00;93406.56;5036079;28;20079;-80
2022/09/05 09:35:39;;;;;;;19.10;15.55;;;;;;;19.02;100.00;93408.25;5032823;28;20077;-79
2022/09/05 09:38:07;;;;;;;24.52;18.80;;;;;;;19.20;100.00;93404.44;5036589;28;20139;-80
2022/09/05 09:41:11;;;;;;;24.75;20.05;;;;;;;19.34;100.00;93399.72;5037620;28;20067;-80
2022/09/05 09:43:46;;;;;;;23.70;19.23;;;;;;;19.44;100.00;93397.81;5037401;28;20037;-80
2022/09/05 09:46:34;;;;;;;24.88;19.58;;;;;;;19.50;100.00;93404.50;5039575;28;20125;-79
2022/09/05 09:49:26;;;;;;;23.58;18.23;;;;;;;19.51;100.00;93406.06;5038371;28;20064;-79
2022/09/05 09:51:59;;;;;;;21.70;17.55;;;;;;;19.54;100.00;93408.06;5062387;28;20190;-79
2022/09/05 09:54:33;;;;;;;23.13;18.95;;;;;;;19.54;100.00;93402.75;5054892;28;20044;-79
2022/09/05 09:57:24;;;;;;;22.30;17.48;;;;;;;19.55;100.00;93404.31;5020788;28;20034;-79
2022/09/05 09:59:58;;;;;;;24.70;19.33;;;;;;;19.57;100.00;93404.78;5049631;28;20372;-79
2022/09/05 10:02:35;;;;;;;27.25;21.52;;;;;;;19.55;100.00;93399.00;5042589;28;20059;-79
2022/09/05 10:05:17;;;;;;;25.52;20.48;;;;;;;19.49;100.00;93400.28;5039383;28;20040;-79
2022/09/05 10:07:51;;;;;;;27.35;19.60;;;;;;;19.46;100.00;93401.69;5036527;28;20056;-80
2022/09/05 10:10:24;;;;;;;26.55;21.17;;;;;;;19.50;100.00;93399.97;5037011;28;20053;-80
2022/09/05 10:13:27;;;;;;;28.67;21.73;;;;;;;19.66;100.00;93394.91;5034984;28;20045;-79
2022/09/05 10:16:18;;;;;;;30.10;21.10;;;;;;;19.86;100.00;93392.63;5034922;28;20606;-80
2022/09/05 10:19:05;;;;;;;18.15;15.75;;;;;;;19.87;96.38;93388.88;5038919;28;20036;-80
2022/09/05 10:21:51;;;;;;;19.77;13.52;;;;;;;19.83;88.55;93377.34;5026443;28;20093;-80
2022/09/05 10:24:47;;;;;;;19.77;12.68;;;;;;;20.26;86.94;93385.00;5039792;28;20030;-80
2022/09/05 10:27:36;;;;;;;23.00;17.27;;;;;;;21.13;92.99;93367.50;5021575;28;20061;-80
2022/09/05 10:30:10;;;;;;;20.77;16.88;;;;;;;21.75;91.28;93366.47;5013605;28;20072;-80
2022/09/05 10:32:42;;;;;;;18.42;14.25;;;;;;;22.10;88.26;93360.63;5051880;28;20071;-79
2022/09/05 10:35:25;;;;;;;17.83;14.25;;;;;;;22.16;88.04;93364.63;5041431;28;20120;-80
2022/09/05 10:37:59;;;;;;;19.23;14.55;;;;;;;21.55;89.45;93354.03;5052362;28;20037;-80
2022/09/05 10:40:27;;;;;;;16.02;13.13;;;;;;;21.47;88.41;93355.69;5040451;28;20033;-80
2022/09/05 10:43:26;;;;;;;17.98;13.15;;;;;;;21.52;82.99;93354.69;5039223;28;20120;-79
2022/09/05 10:45:55;;;;;;;18.15;14.50;;;;;;;21.73;89.21;93355.34;5026694;28;20390;-79
2022/09/05 10:48:27;;;;;;;18.45;13.93;;;;;;;21.74;82.90;93354.22;5039269;28;20061;-79
2022/09/05 10:50:59;;;;;;;18.73;14.13;;;;;;;22.01;81.68;93347.41;5036811;28;20552;-77
2022/09/05 10:53:34;;;;;;;16.00;12.63;;;;;;;22.00;74.51;93355.78;5034322;28;20041;-77
2022/09/05 10:56:26;;;;;;;15.77;11.90;;;;;;;21.98;71.55;93347.34;5032145;28;20025;-77
2022/09/05 10:59:00;;;;;;;12.80;11.05;;;;;;;22.80;77.59;93343.50;5002247;28;20466;-76
2022/09/05 11:02:05;;;;;;;16.60;13.57;;;;;;;22.60;86.40;93346.03;5033476;28;20087;-76
2022/09/05 11:04:34;;;;;;;17.73;11.38;;;;;;;22.91;78.57;93339.22;5032841;28;20037;-76
2022/09/05 11:07:04;;;;;;;16.15;13.32;;;;;;;22.96;79.05;93341.63;5031628;28;20506;-76
2022/09/05 11:09:32;;;;;;;12.63;9.15;;;;;;;23.06;74.47;93335.06;5032927;28;20087;-77
2022/09/05 11:12:08;;;;;;;14.63;10.27;;;;;;;23.05;66.77;93334.25;5031328;28;20099;-76
2022/09/05 11:14:49;;;;;;;19.02;12.10;;;;;;;23.00;82.38;93334.53;5037958;28;20069;-76
2022/09/05 11:17:42;;;;;;;11.95;10.43;;;;;;;22.35;71.93;93329.34;5028135;28;20070;-76
2022/09/05 11:20:27;;;;;;;12.05;9.30;;;;;;;22.42;66.31;93326.88;5013101;28;20452;-76
2022/09/05 11:23:00;;;;;;;9.38;6.47;;;;;;;22.36;65.70;93325.59;5028101;28;20045;-76
2022/09/05 11:25:28;;;;;;;10.63;6.90;;;;;;;22.61;66.85;93323.59;5026514;28;20021;-77
2022/09/05 11:27:59;;;;;;;12.43;10.07;;;;;;;22.68;73.64;93317.66;5052622;28;20078;-76
2022/09/05 11:30:32;;;;;;;13.27;10.82;;;;;;;22.68;77.50;93314.22;5051335;28;20041;-77
2022/09/05 11:33:07;;;;;;;13.68;10.60;;;;;;;22.53;75.34;93316.50;5052280;28;20041;-76
2022/09/05 11:35:45;;;;;;;12.43;9.40;;;;;;;23.05;78.06;93318.25;5049712;28;20449;-76
2022/09/05 11:38:26;;;;;;;15.88;12.57;;;;;;;23.18;74.94;93318.16;5045477;28;20030;-77
2022/09/05 11:41:10;;;;;;;20.35;13.68;;;;;;;23.14;69.34;93309.28;5031322;28;20493;-77
2022/09/05 11:44:03;;;;;;;14.50;10.93;;;;;;;23.34;71.24;93312.81;5014853;28;20149;-76
2022/09/05 11:46:41;;;;;;;24.38;16.75;;;;;;;23.51;66.64;93309.00;5046824;28;20029;-77
2022/09/05 11:50:01;;;;;;;20.40;15.65;;;;;;;23.82;62.75;93302.84;5052589;28;20032;-77
2022/09/05 11:52:52;;;;;;;19.15;13.02;;;;;;;23.91;64.99;93292.72;5051031;28;20447;-76
2022/09/05 11:55:48;;;;;;;22.83;15.30;;;;;;;23.33;61.85;93305.91;5050635;28;20037;-76
2022/09/05 11:58:41;;;;;;;23.33;17.35;;;;;;;22.74;64.17;93300.28;5037558;28;20088;-76
2022/09/05 12:01:30;;;;;;;25.33;18.65;;;;;;;23.26;65.05;93298.53;5032243;28;20549;-77
2022/09/05 12:04:15;;;;;;;16.83;14.05;;;;;;;23.54;65.46;93305.66;5031923;28;20041;-76
2022/09/05 12:07:02;;;;;;;20.75;16.20;;;;;;;23.64;64.11;93295.22;5031867;28;20104;-77
2022/09/05 12:09:52;;;;;;;16.75;12.25;;;;;;;23.24;67.11;93287.41;5033707;28;20481;-77
2022/09/05 12:12:57;;;;;;;15.05;12.13;;;;;;;23.19;69.18;93293.00;5031531;28;20055;-76
2022/09/05 12:15:33;;;;;;;15.77;11.68;;;;;;;23.28;67.73;93297.06;5010216;28;20084;-76
2022/09/05 12:18:26;;;;;;;17.35;12.98;;;;;;;23.32;67.10;93299.81;5033854;28;20044;-76
2022/09/05 12:21:02;;;;;;;21.33;13.60;;;;;;;23.02;67.13;93286.91;5051529;28;20033;-76
2022/09/05 12:23:46;;;;;;;16.90;12.13;;;;;;;23.10;71.65;93281.72;5050378;28;20048;-76
2022/09/05 12:26:29;;;;;;;17.65;11.00;;;;;;;23.27;75.38;93286.72;5038926;28;20040;-76
2022/09/05 12:29:07;;;;;;;14.13;11.65;;;;;;;23.52;72.17;93273.94;5032316;28;20029;-76